Time;durP1;ratioP1;P1;durP2;ratioP2;P2;SDS_P1;SDS_P2;PMS_P1;PMS_P2;Temp;Humidity;BMP_temperature;BMP_pressure;BME280_temperature;BME280_humidity;BME280_pressure;Samples;Min_cycle;Max_cycle;Signal;HPM_P1;HPM_P2
2021/01/25 00:00:18;;;;;;;1.90;0.40;;;3.20;99.90;;;;;;5026113;28;20284;-63
2021/01/25 00:02:43;;;;;;;1.73;0.20;;;3.20;99.90;;;;;;5028694;28;20174;-63
2021/01/25 00:05:10;;;;;;;1.70;0.20;;;3.20;99.90;;;;;;5026242;28;21504;-63
2021/01/25 00:07:36;;;;;;;1.70;0.20;;;3.10;99.90;;;;;;5025978;28;20277;-64
2021/01/25 00:10:06;;;;;;;1.70;0.20;;;3.20;99.90;;;;;;5029279;28;20216;-63
2021/01/25 00:12:32;;;;;;;1.73;0.20;;;3.30;99.90;;;;;;5024811;28;20472;-64
2021/01/25 00:14:57;;;;;;;1.90;0.57;;;3.30;99.90;;;;;;5030272;28;20213;-63
2021/01/25 00:17:23;;;;;;;1.70;0.20;;;3.20;99.90;;;;;;5027517;28;20202;-63
2021/01/25 00:19:49;;;;;;;1.70;0.20;;;3.20;99.90;;;;;;5027830;28;20288;-65
2021/01/25 00:22:14;;;;;;;1.70;0.20;;;3.20;99.90;;;;;;5028936;28;20217;-64
2021/01/25 00:24:40;;;;;;;1.70;0.20;;;3.10;99.90;;;;;;5027812;28;20186;-63
2021/01/25 00:27:06;;;;;;;1.70;0.20;;;3.20;99.90;;;;;;5027115;28;20256;-62
2021/01/25 00:29:32;;;;;;;1.70;0.20;;;3.20;99.90;;;;;;5028546;28;20189;-63
2021/01/25 00:31:58;;;;;;;1.70;0.20;;;3.20;99.90;;;;;;5027159;28;20463;-63
2021/01/25 00:34:27;;;;;;;1.70;0.20;;;3.10;99.90;;;;;;5027618;28;20560;-63
2021/01/25 00:36:53;;;;;;;1.70;0.20;;;3.10;99.90;;;;;;5032385;28;20253;-63
2021/01/25 00:39:18;;;;;;;1.70;0.20;;;3.20;99.90;;;;;;5031436;28;20260;-63
2021/01/25 00:41:44;;;;;;;1.70;0.20;;;3.10;99.90;;;;;;5030986;28;20474;-63
2021/01/25 00:44:10;;;;;;;1.80;0.30;;;3.10;99.90;;;;;;5032112;28;20189;-63
2021/01/25 00:46:36;;;;;;;1.70;0.20;;;3.20;99.90;;;;;;5031241;28;20216;-64
2021/01/25 00:49:02;;;;;;;1.70;0.20;;;3.20;99.90;;;;;;5031561;28;20692;-65
2021/01/25 00:51:28;;;;;;;1.70;0.20;;;3.20;99.90;;;;;;5033295;28;20281;-65
2021/01/25 00:53:54;;;;;;;1.70;0.20;;;3.10;99.90;;;;;;5031762;28;20190;-63
2021/01/25 00:56:19;;;;;;;1.70;0.20;;;3.10;99.90;;;;;;5040978;28;20208;-64
2021/01/25 00:58:45;;;;;;;1.70;0.20;;;3.10;99.90;;;;;;5054269;28;20158;-62
2021/01/25 01:01:11;;;;;;;1.70;0.20;;;3.00;99.90;;;;;;5048414;28;20201;-62
2021/01/25 01:03:37;;;;;;;1.70;0.20;;;3.00;99.90;;;;;;5055219;28;20256;-62
2021/01/25 01:06:03;;;;;;;1.70;0.20;;;3.00;99.90;;;;;;5057155;28;20226;-62
2021/01/25 01:08:29;;;;;;;1.70;0.20;;;3.00;99.90;;;;;;5055128;28;20205;-63
2021/01/25 01:10:54;;;;;;;1.70;0.20;;;3.00;99.90;;;;;;5053884;28;20178;-62
2021/01/25 01:13:20;;;;;;;1.73;0.20;;;3.00;99.90;;;;;;5046831;28;20246;-66
2021/01/25 01:15:46;;;;;;;1.70;0.20;;;3.00;99.90;;;;;;5047117;28;20213;-64
2021/01/25 01:18:12;;;;;;;1.70;0.20;;;3.10;99.90;;;;;;5048832;28;20201;-64
2021/01/25 01:20:37;;;;;;;1.70;0.20;;;3.00;99.90;;;;;;5050233;28;20217;-63
2021/01/25 01:23:03;;;;;;;1.70;0.20;;;3.10;99.90;;;;;;5041722;28;20182;-63
2021/01/25 01:25:29;;;;;;;1.70;0.20;;;3.10;99.90;;;;;;5035118;28;20182;-64
2021/01/25 01:27:55;;;;;;;1.70;0.20;;;3.00;99.90;;;;;;5034657;28;20442;-61
2021/01/25 01:30:21;;;;;;;1.80;0.20;;;3.10;99.90;;;;;;5052422;28;20253;-64
2021/01/25 01:32:48;;;;;;;1.70;0.20;;;3.00;99.90;;;;;;5050242;28;20395;-63
2021/01/25 01:35:14;;;;;;;1.70;0.20;;;3.00;99.90;;;;;;5049990;28;20184;-65
2021/01/25 01:37:39;;;;;;;1.70;0.20;;;3.00;99.90;;;;;;5038898;28;20215;-62
2021/01/25 01:40:08;;;;;;;1.70;0.20;;;3.10;99.90;;;;;;5052606;28;20213;-63
2021/01/25 01:42:34;;;;;;;1.70;0.20;;;3.10;99.90;;;;;;5042902;28;20209;-63
2021/01/25 01:45:03;;;;;;;1.70;0.20;;;3.20;99.90;;;;;;5039150;28;20214;-62
2021/01/25 01:47:30;;;;;;;1.70;0.20;;;3.20;99.90;;;;;;5032860;28;20209;-64
2021/01/25 01:49:56;;;;;;;1.70;0.20;;;3.20;99.90;;;;;;5026308;28;20194;-63
2021/01/25 01:52:22;;;;;;;1.70;0.20;;;3.20;99.90;;;;;;5032066;28;20184;-64
2021/01/25 01:54:50;;;;;;;1.70;0.20;;;3.20;99.90;;;;;;5029938;28;20506;-63
2021/01/25 01:57:16;;;;;;;1.70;0.20;;;3.20;99.90;;;;;;5030998;28;20228;-63
2021/01/25 01:59:42;;;;;;;1.70;0.20;;;3.10;99.90;;;;;;5032449;28;20533;-63
2021/01/25 02:02:08;;;;;;;1.70;0.20;;;3.10;99.90;;;;;;5029405;28;20252;-63
2021/01/25 02:04:35;;;;;;;1.70;0.20;;;3.10;99.90;;;;;;5029505;28;20668;-63
2021/01/25 02:07:03;;;;;;;1.70;0.20;;;3.20;99.90;;;;;;5031407;28;20959;-63
2021/01/25 02:09:32;;;;;;;1.73;0.20;;;3.10;99.90;;;;;;5028113;28;20185;-63
2021/01/25 02:11:58;;;;;;;1.70;0.20;;;3.20;99.90;;;;;;5029449;28;20186;-63
2021/01/25 02:14:25;;;;;;;1.70;0.20;;;3.10;99.90;;;;;;5032296;28;20258;-65
2021/01/25 02:16:51;;;;;;;1.73;0.20;;;3.10;99.90;;;;;;5043701;28;20208;-63
2021/01/25 02:19:27;;;;;;;1.70;0.20;;;3.20;99.90;;;;;;5048216;28;20181;-67
2021/01/25 02:22:14;;;;;;;1.73;0.20;;;3.20;99.90;;;;;;5049457;28;20194;-64
2021/01/25 02:24:44;;;;;;;1.70;0.20;;;3.20;99.90;;;;;;5042112;28;20175;-66
2021/01/25 02:27:25;;;;;;;1.70;0.20;;;3.10;99.90;;;;;;5045680;28;20194;-63
2021/01/25 02:29:51;;;;;;;1.70;0.20;;;3.20;99.90;;;;;;5038375;28;20173;-63
2021/01/25 02:32:16;;;;;;;1.70;0.20;;;3.20;99.90;;;;;;5032885;28;20189;-63
2021/01/25 02:34:42;;;;;;;1.70;0.20;;;3.30;99.90;;;;;;5034163;28;20597;-63
2021/01/25 02:37:09;;;;;;;1.73;0.20;;;3.30;99.90;;;;;;5015761;28;20684;-61
2021/01/25 02:39:36;;;;;;;1.73;0.20;;;3.30;99.90;;;;;;5026650;28;20274;-65
2021/01/25 02:42:03;;;;;;;1.70;0.20;;;3.30;99.90;;;;;;5030946;28;20217;-64
2021/01/25 02:44:30;;;;;;;1.70;0.20;;;3.20;99.90;;;;;;5031423;28;20216;-62
2021/01/25 02:46:58;;;;;;;1.73;0.20;;;3.20;99.90;;;;;;5029016;28;20309;-63
2021/01/25 02:49:23;;;;;;;1.70;0.20;;;3.10;99.90;;;;;;5013752;28;20192;-63
2021/01/25 02:51:49;;;;;;;1.70;0.20;;;3.20;99.90;;;;;;4996367;28;20202;-63
2021/01/25 02:54:15;;;;;;;1.70;0.20;;;3.20;99.90;;;;;;5027044;28;20251;-63
2021/01/25 02:56:41;;;;;;;4.50;4.20;;;3.20;99.90;;;;;;5025724;28;20214;-63
2021/01/25 02:59:07;;;;;;;1.70;0.20;;;3.20;99.90;;;;;;5032997;28;20189;-64
2021/01/25 03:01:33;;;;;;;1.70;0.20;;;3.20;99.90;;;;;;5031937;28;20464;-64
2021/01/25 03:04:00;;;;;;;1.70;0.20;;;3.10;99.90;;;;;;5033407;28;20181;-63
2021/01/25 03:06:26;;;;;;;1.73;0.20;;;3.10;99.90;;;;;;5026459;28;20208;-63
2021/01/25 03:08:52;;;;;;;1.70;0.20;;;3.20;99.90;;;;;;5029025;28;20261;-64
2021/01/25 03:11:19;;;;;;;1.70;0.20;;;3.20;99.90;;;;;;5029699;28;20197;-63
2021/01/25 03:13:45;;;;;;;1.70;0.20;;;3.30;99.90;;;;;;5025753;28;20221;-63
2021/01/25 03:16:15;;;;;;;1.70;0.20;;;3.30;99.90;;;;;;5027777;28;20269;-64
2021/01/25 03:18:41;;;;;;;1.70;0.20;;;3.30;99.90;;;;;;5031922;28;20182;-64
2021/01/25 03:21:07;;;;;;;1.73;0.20;;;3.30;99.90;;;;;;5027301;28;20233;-63
2021/01/25 03:23:34;;;;;;;1.70;0.20;;;3.20;99.90;;;;;;5027866;28;20625;-63
2021/01/25 03:26:00;;;;;;;1.70;0.20;;;3.20;99.90;;;;;;5030156;28;20751;-62
2021/01/25 03:28:26;;;;;;;1.70;0.20;;;3.20;99.90;;;;;;5027554;28;20175;-64
2021/01/25 03:30:52;;;;;;;1.70;0.20;;;3.20;99.90;;;;;;5030756;28;21022;-63
2021/01/25 03:33:17;;;;;;;1.70;0.20;;;3.10;99.90;;;;;;5031772;28;20186;-63
2021/01/25 03:35:43;;;;;;;1.70;0.20;;;3.10;99.90;;;;;;5027923;28;20509;-64
2021/01/25 03:38:09;;;;;;;1.70;0.20;;;3.10;99.90;;;;;;5030669;28;20186;-64
2021/01/25 03:40:35;;;;;;;1.80;0.20;;;3.10;99.90;;;;;;5027319;28;20232;-63
2021/01/25 03:43:01;;;;;;;1.70;0.20;;;3.10;99.90;;;;;;5026157;28;20186;-64
2021/01/25 03:45:27;;;;;;;1.70;0.20;;;3.10;99.90;;;;;;5031610;28;20411;-61
2021/01/25 03:47:52;;;;;;;1.70;0.20;;;3.10;99.90;;;;;;5030982;28;20212;-64
2021/01/25 03:50:18;;;;;;;1.70;0.20;;;3.10;99.90;;;;;;5028762;28;20173;-64
2021/01/25 03:52:44;;;;;;;1.70;0.20;;;3.20;99.90;;;;;;5013012;28;20198;-63
2021/01/25 03:55:10;;;;;;;1.70;0.20;;;3.20;99.90;;;;;;5027782;28;20192;-63
2021/01/25 03:57:36;;;;;;;1.90;0.45;;;3.10;99.90;;;;;;5026732;28;20264;-63
2021/01/25 04:00:06;;;;;;;1.70;0.20;;;3.20;99.90;;;;;;5030798;28;20193;-63
2021/01/25 04:02:31;;;;;;;1.70;0.20;;;3.20;99.90;;;;;;5025791;28;20214;-62
2021/01/25 04:04:57;;;;;;;1.70;0.20;;;3.20;99.90;;;;;;5011544;28;20274;-63
2021/01/25 04:07:23;;;;;;;1.70;0.20;;;3.20;99.90;;;;;;5029400;28;20453;-63
2021/01/25 04:09:48;;;;;;;1.70;0.20;;;3.20;99.90;;;;;;5030922;28;20197;-63
2021/01/25 04:12:14;;;;;;;1.70;0.20;;;3.20;99.90;;;;;;5033863;28;20215;-63
2021/01/25 04:14:40;;;;;;;1.70;0.20;;;3.10;99.90;;;;;;5031665;28;20205;-62
2021/01/25 04:17:07;;;;;;;1.80;0.30;;;3.20;99.90;;;;;;5029098;28;20209;-63
2021/01/25 04:19:33;;;;;;;1.73;0.20;;;3.20;99.90;;;;;;5032258;28;20190;-63
2021/01/25 04:21:58;;;;;;;1.70;0.20;;;3.20;99.90;;;;;;5033966;28;20279;-63
2021/01/25 04:24:24;;;;;;;1.70;0.20;;;3.20;99.90;;;;;;5030186;28;20210;-63
2021/01/25 04:26:50;;;;;;;1.70;0.20;;;3.20;99.90;;;;;;5031147;28;20269;-63
2021/01/25 04:29:15;;;;;;;1.70;0.20;;;3.30;99.90;;;;;;5026303;28;20647;-63
2021/01/25 04:31:41;;;;;;;1.70;0.20;;;3.30;99.90;;;;;;5028467;28;20270;-63
2021/01/25 04:34:07;;;;;;;1.70;0.20;;;3.30;99.90;;;;;;5016496;28;20667;-62
2021/01/25 04:36:33;;;;;;;1.70;0.20;;;3.20;99.90;;;;;;5026794;28;20680;-62
2021/01/25 04:38:59;;;;;;;1.70;0.20;;;3.20;99.90;;;;;;5030712;28;20190;-62
2021/01/25 04:41:25;;;;;;;1.70;0.20;;;3.20;99.90;;;;;;5033753;28;20208;-63
2021/01/25 04:43:54;;;;;;;1.70;0.20;;;3.10;99.90;;;;;;5030611;28;20186;-62
2021/01/25 04:46:21;;;;;;;1.73;0.20;;;3.00;99.90;;;;;;5032203;28;20226;-63
2021/01/25 04:48:49;;;;;;;1.75;0.30;;;3.10;99.90;;;;;;5034031;28;20177;-63
2021/01/25 04:51:15;;;;;;;1.70;0.20;;;3.00;99.90;;;;;;5030416;28;20213;-63
2021/01/25 04:53:42;;;;;;;1.70;0.20;;;3.00;99.90;;;;;;5030240;28;20239;-63
2021/01/25 04:56:09;;;;;;;1.70;0.20;;;3.00;99.90;;;;;;5033363;28;20210;-63
2021/01/25 04:58:35;;;;;;;1.75;0.30;;;2.90;99.90;;;;;;5028532;28;20710;-63
2021/01/25 05:01:02;;;;;;;2.40;1.00;;;2.90;99.90;;;;;;5033013;28;20205;-63
2021/01/25 05:03:28;;;;;;;2.00;0.43;;;2.80;99.90;;;;;;5030108;28;20182;-63
2021/01/25 05:05:56;;;;;;;2.50;1.25;;;2.60;99.90;;;;;;5030053;28;20201;-64
2021/01/25 05:08:21;;;;;;;2.13;0.77;;;2.50;99.90;;;;;;5030984;28;20202;-64
2021/01/25 05:10:48;;;;;;;1.70;0.30;;;2.50;99.90;;;;;;5032000;28;20267;-63
2021/01/25 05:13:23;;;;;;;2.25;0.70;;;2.60;99.90;;;;;;5027839;28;20202;-63
2021/01/25 05:15:51;;;;;;;4.28;0.68;;;2.60;99.90;;;;;;5029825;28;20568;-63
2021/01/25 05:18:21;;;;;;;2.10;0.88;;;2.60;99.90;;;;;;5031006;28;20178;-63
2021/01/25 05:20:51;;;;;;;2.13;0.60;;;2.50;99.90;;;;;;5029487;28;20312;-63
2021/01/25 05:23:18;;;;;;;1.95;0.55;;;2.50;99.90;;;;;;5031940;28;20182;-63
2021/01/25 05:25:43;;;;;;;2.13;0.73;;;2.40;99.90;;;;;;5031672;28;20193;-64
2021/01/25 05:28:17;;;;;;;2.83;1.43;;;2.30;99.90;;;;;;5028976;28;20190;-64
2021/01/25 05:30:43;;;;;;;1.77;0.30;;;2.30;99.90;;;;;;5033941;28;20174;-63
2021/01/25 05:33:09;;;;;;;1.70;0.25;;;2.20;99.90;;;;;;5011855;28;20186;-63
2021/01/25 05:35:35;;;;;;;3.07;1.70;;;2.20;99.90;;;;;;5031644;28;20481;-63
2021/01/25 05:38:07;;;;;;;2.17;0.83;;;2.10;99.90;;;;;;5031355;28;20553;-62
2021/01/25 05:40:36;;;;;;;1.83;0.43;;;2.10;99.90;;;;;;5027620;28;20448;-62
2021/01/25 05:43:14;;;;;;;2.63;1.15;;;2.10;99.90;;;;;;5030239;28;20243;-63
2021/01/25 05:45:40;;;;;;;1.73;0.30;;;2.00;99.90;;;;;;5033500;28;20178;-63
2021/01/25 05:48:06;;;;;;;1.70;0.20;;;2.10;99.90;;;;;;5027338;28;20269;-62
2021/01/25 05:50:35;;;;;;;1.70;0.20;;;2.10;99.90;;;;;;5029242;28;20182;-63
2021/01/25 05:53:05;;;;;;;2.10;0.95;;;2.20;99.90;;;;;;5023560;28;20248;-63
2021/01/25 05:55:32;;;;;;;2.10;0.70;;;2.10;99.90;;;;;;5030144;28;20186;-64
2021/01/25 05:57:59;;;;;;;2.00;0.88;;;2.10;99.90;;;;;;5030983;28;20201;-62
2021/01/25 06:00:25;;;;;;;1.77;0.20;;;2.10;99.90;;;;;;5033126;28;20187;-63
2021/01/25 06:02:52;;;;;;;1.73;0.20;;;2.10;99.90;;;;;;5027669;28;20600;-63
2021/01/25 06:05:20;;;;;;;1.70;0.20;;;2.20;99.90;;;;;;5032063;28;20196;-63
2021/01/25 06:07:50;;;;;;;1.70;0.20;;;2.20;99.90;;;;;;5012482;28;20229;-63
2021/01/25 06:10:22;;;;;;;1.70;0.20;;;2.20;99.90;;;;;;5028999;28;20687;-64
2021/01/25 06:12:55;;;;;;;1.70;0.20;;;2.20;99.90;;;;;;5030067;28;20201;-64
2021/01/25 06:15:23;;;;;;;3.17;0.50;;;2.20;99.90;;;;;;5031370;28;20182;-64
2021/01/25 06:17:49;;;;;;;2.97;0.85;;;2.20;99.90;;;;;;5029952;28;20208;-64
2021/01/25 06:20:17;;;;;;;1.70;0.20;;;2.20;99.90;;;;;;5029202;28;20182;-63
2021/01/25 06:22:46;;;;;;;1.90;0.30;;;2.10;99.90;;;;;;5030083;28;20439;-63
2021/01/25 06:25:15;;;;;;;1.80;0.20;;;2.10;99.90;;;;;;5027494;28;20190;-62
2021/01/25 06:27:42;;;;;;;1.70;0.20;;;2.10;99.90;;;;;;5029082;28;20204;-62
2021/01/25 06:30:11;;;;;;;1.70;0.20;;;2.10;99.90;;;;;;5028848;28;20201;-63
2021/01/25 06:32:41;;;;;;;1.73;0.20;;;2.10;99.90;;;;;;5026818;28;20189;-63
2021/01/25 06:35:11;;;;;;;1.73;0.20;;;2.10;99.90;;;;;;5028758;28;20202;-62
2021/01/25 06:37:37;;;;;;;1.70;0.30;;;2.20;99.90;;;;;;5025975;28;20232;-63
2021/01/25 06:40:11;;;;;;;1.70;0.20;;;2.20;99.90;;;;;;5029370;28;20178;-62
2021/01/25 06:42:39;;;;;;;1.70;0.20;;;2.30;99.90;;;;;;5030844;28;20266;-60
2021/01/25 06:45:06;;;;;;;1.70;0.20;;;2.40;99.90;;;;;;5030053;28;20192;-63
2021/01/25 06:47:36;;;;;;;1.70;0.20;;;2.50;99.90;;;;;;5027433;28;20535;-63
2021/01/25 06:50:04;;;;;;;1.73;0.20;;;2.50;99.90;;;;;;5011938;28;20185;-63
2021/01/25 06:52:31;;;;;;;2.00;0.60;;;2.50;99.90;;;;;;5030107;28;20299;-62
2021/01/25 06:55:01;;;;;;;1.70;0.20;;;2.50;99.90;;;;;;5027413;28;20186;-63
2021/01/25 06:57:27;;;;;;;1.75;0.20;;;2.40;99.90;;;;;;5026760;28;20245;-63
2021/01/25 06:59:55;;;;;;;1.70;0.20;;;2.40;99.90;;;;;;5029895;28;21404;-62
2021/01/25 07:02:25;;;;;;;1.70;0.20;;;2.40;99.90;;;;;;5047089;28;20457;-62
2021/01/25 07:04:57;;;;;;;1.70;0.20;;;2.40;99.90;;;;;;5044878;28;20713;-61
2021/01/25 07:07:30;;;;;;;1.70;0.20;;;2.50;99.90;;;;;;5039874;28;20217;-62
2021/01/25 07:09:57;;;;;;;1.73;0.20;;;2.50;99.90;;;;;;5038562;28;20243;-62
2021/01/25 07:12:25;;;;;;;1.70;0.20;;;2.50;99.90;;;;;;5031457;28;20456;-62
2021/01/25 07:14:52;;;;;;;1.70;0.20;;;2.60;99.90;;;;;;5023838;28;20763;-61
2021/01/25 07:17:19;;;;;;;1.70;0.20;;;2.60;99.90;;;;;;5026586;28;20233;-62
2021/01/25 07:19:45;;;;;;;1.73;0.20;;;2.60;99.90;;;;;;5020487;28;20170;-62
2021/01/25 07:22:11;;;;;;;1.73;0.20;;;2.60;99.90;;;;;;5023878;28;20305;-60
2021/01/25 07:24:38;;;;;;;1.80;0.20;;;2.50;99.90;;;;;;5017769;28;20196;-60
2021/01/25 07:27:05;;;;;;;1.73;0.20;;;2.50;99.90;;;;;;5026126;28;20210;-62
2021/01/25 07:29:32;;;;;;;1.90;0.40;;;2.50;99.90;;;;;;5026148;28;20206;-62
2021/01/25 07:31:59;;;;;;;1.75;0.20;;;2.50;99.90;;;;;;5024937;28;20217;-61
2021/01/25 07:34:30;;;;;;;1.73;0.20;;;2.50;99.90;;;;;;5027684;28;20197;-61
2021/01/25 07:36:56;;;;;;;1.80;0.40;;;2.50;99.90;;;;;;5027742;28;20305;-66
2021/01/25 07:39:22;;;;;;;1.70;0.20;;;2.60;99.90;;;;;;5027706;28;20542;-62
2021/01/25 07:41:48;;;;;;;1.70;0.20;;;2.60;99.90;;;;;;5033586;28;20213;-61
2021/01/25 07:44:15;;;;;;;1.70;0.20;;;2.70;99.90;;;;;;5034103;28;20524;-62
2021/01/25 07:46:43;;;;;;;1.80;0.40;;;2.70;99.90;;;;;;5036519;28;20243;-62
2021/01/25 07:49:09;;;;;;;1.77;0.20;;;2.70;99.90;;;;;;5030456;28;20214;-62
2021/01/25 07:51:37;;;;;;;1.70;0.20;;;2.70;99.90;;;;;;5027380;28;20194;-62
2021/01/25 07:54:04;;;;;;;1.70;0.20;;;2.60;99.90;;;;;;5030549;28;20532;-62
2021/01/25 07:56:30;;;;;;;1.77;0.20;;;2.60;99.90;;;;;;5030583;28;20194;-62
2021/01/25 07:59:11;;;;;;;1.70;0.20;;;2.50;99.90;;;;;;5027654;28;20178;-62
2021/01/25 08:01:49;;;;;;;1.70;0.20;;;2.50;99.90;;;;;;5028290;28;20206;-62
2021/01/25 08:04:19;;;;;;;4.07;1.60;;;2.50;99.90;;;;;;5028884;28;20600;-63
2021/01/25 08:06:45;;;;;;;1.70;0.20;;;2.40;99.90;;;;;;5025699;28;20194;-62
2021/01/25 08:09:12;;;;;;;1.70;0.20;;;2.40;99.90;;;;;;5028928;28;21980;-63
2021/01/25 08:11:41;;;;;;;1.80;0.30;;;2.40;99.90;;;;;;5028309;28;20212;-64
2021/01/25 08:14:36;;;;;;;1.80;0.40;;;2.50;99.90;;;;;;5024865;28;20293;-62
2021/01/25 08:17:07;;;;;;;5.68;3.70;;;2.50;99.90;;;;;;5030025;28;20208;-62
2021/01/25 08:19:43;;;;;;;1.77;0.20;;;2.40;99.90;;;;;;5031487;28;20181;-63
2021/01/25 08:22:19;;;;;;;1.75;0.20;;;2.30;99.90;;;;;;5026059;28;20309;-63
2021/01/25 08:25:00;;;;;;;1.70;0.20;;;2.40;99.90;;;;;;5029884;28;20206;-63
2021/01/25 08:27:26;;;;;;;1.73;0.20;;;2.60;99.90;;;;;;5028981;28;20197;-61
2021/01/25 08:30:06;;;;;;;1.73;0.20;;;2.70;99.90;;;;;;5011455;28;20208;-61
2021/01/25 08:32:42;;;;;;;1.70;0.20;;;2.70;99.90;;;;;;5021314;28;20221;-62
2021/01/25 08:35:09;;;;;;;1.70;0.20;;;2.80;99.90;;;;;;5031176;28;20173;-61
2021/01/25 08:37:35;;;;;;;1.70;0.20;;;2.80;99.90;;;;;;5028646;28;20249;-61
2021/01/25 08:40:22;;;;;;;2.20;0.40;;;2.80;99.90;;;;;;5027464;28;20553;-61
2021/01/25 08:42:48;;;;;;;1.73;0.20;;;2.70;99.90;;;;;;5029700;28;20205;-61
2021/01/25 08:45:34;;;;;;;1.77;0.20;;;2.60;99.90;;;;;;5026930;28;20197;-62
2021/01/25 08:48:06;;;;;;;1.70;0.20;;;2.60;99.90;;;;;;5032848;28;20265;-62
2021/01/25 08:50:33;;;;;;;3.85;2.05;;;2.70;99.90;;;;;;5025847;28;20232;-61
2021/01/25 08:53:03;;;;;;;1.90;0.60;;;2.70;99.90;;;;;;5027268;28;20178;-61
2021/01/25 08:55:36;;;;;;;1.80;0.35;;;2.70;99.90;;;;;;5028956;28;20205;-61
2021/01/25 08:58:02;;;;;;;1.73;0.20;;;2.70;99.90;;;;;;5031619;28;20626;-61
2021/01/25 09:00:33;;;;;;;1.77;0.20;;;2.70;99.90;;;;;;5032131;28;20288;-62
2021/01/25 09:03:06;;;;;;;1.75;0.20;;;2.70;99.90;;;;;;5030289;28;20208;-61
2021/01/25 09:05:32;;;;;;;1.70;0.20;;;2.80;99.90;;;;;;5035962;28;20339;-61
2021/01/25 09:07:58;;;;;;;1.75;0.30;;;2.90;99.90;;;;;;5036929;28;20198;-61
2021/01/25 09:10:24;;;;;;;1.80;0.30;;;3.00;99.90;;;;;;5033225;28;20182;-61
2021/01/25 09:12:50;;;;;;;4.17;1.47;;;3.00;99.90;;;;;;5036255;28;20200;-61
2021/01/25 09:15:17;;;;;;;1.70;0.20;;;3.00;99.90;;;;;;5031891;28;20422;-61
2021/01/25 09:17:43;;;;;;;4.00;2.05;;;2.80;99.90;;;;;;5032455;28;20460;-61
2021/01/25 09:20:10;;;;;;;1.73;0.20;;;2.80;99.90;;;;;;5032802;28;20181;-61
2021/01/25 09:22:36;;;;;;;1.70;0.20;;;2.70;99.90;;;;;;5036720;28;20232;-61
2021/01/25 09:25:03;;;;;;;2.23;0.87;;;2.80;99.90;;;;;;5032151;28;20210;-63
2021/01/25 09:27:29;;;;;;;1.73;0.20;;;2.80;99.90;;;;;;5037180;28;20509;-61
2021/01/25 09:29:55;;;;;;;1.70;0.20;;;2.70;99.90;;;;;;5046204;28;20210;-61
2021/01/25 09:32:21;;;;;;;1.70;0.20;;;2.70;99.90;;;;;;5053615;28;20253;-63
2021/01/25 09:34:48;;;;;;;4.80;1.20;;;2.70;99.90;;;;;;5054776;28;20198;-65
2021/01/25 09:37:13;;;;;;;1.70;0.22;;;2.60;99.90;;;;;;5051113;28;20293;-64
2021/01/25 09:39:39;;;;;;;1.97;0.53;;;2.50;99.90;;;;;;5053989;28;20202;-63
2021/01/25 09:42:06;;;;;;;1.80;0.30;;;2.50;99.90;;;;;;5044991;28;20213;-62
2021/01/25 09:44:35;;;;;;;1.75;0.30;;;2.50;99.90;;;;;;5032574;28;20200;-62
2021/01/25 09:47:01;;;;;;;1.70;0.20;;;2.50;99.90;;;;;;5036848;28;20335;-62
2021/01/25 09:49:27;;;;;;;5.00;3.83;;;2.60;99.90;;;;;;5027017;28;20190;-61
2021/01/25 09:51:53;;;;;;;4.33;1.57;;;2.60;99.90;;;;;;5031222;28;20181;-61
2021/01/25 09:54:19;;;;;;;5.17;2.00;;;2.70;99.90;;;;;;5032861;28;20174;-61
2021/01/25 09:56:45;;;;;;;1.73;0.20;;;2.60;99.90;;;;;;5031353;28;20846;-60
2021/01/25 09:59:11;;;;;;;2.20;0.80;;;2.70;99.90;;;;;;5051584;28;20186;-63
2021/01/25 10:01:37;;;;;;;1.80;0.30;;;2.60;99.90;;;;;;5054127;28;20614;-62
2021/01/25 10:04:03;;;;;;;4.00;2.97;;;2.60;99.90;;;;;;5050786;28;20177;-64
2021/01/25 10:06:28;;;;;;;1.70;0.20;;;2.60;99.90;;;;;;5045966;28;20471;-61
2021/01/25 10:08:55;;;;;;;1.70;0.20;;;2.70;99.90;;;;;;5038424;28;20591;-62
2021/01/25 10:11:21;;;;;;;2.22;0.80;;;2.80;99.90;;;;;;5030021;28;20642;-62
2021/01/25 10:13:46;;;;;;;1.80;0.40;;;2.90;99.90;;;;;;5034473;28;20201;-61
2021/01/25 10:16:12;;;;;;;1.87;0.60;;;2.80;99.90;;;;;;5031282;28;20197;-61
2021/01/25 10:18:38;;;;;;;1.70;0.20;;;2.80;99.90;;;;;;5029293;28;20182;-62
2021/01/25 10:21:04;;;;;;;1.80;0.30;;;2.90;99.90;;;;;;5013876;28;20232;-62
2021/01/25 10:23:31;;;;;;;6.03;1.03;;;2.90;99.90;;;;;;5032396;28;20178;-61
2021/01/25 10:25:56;;;;;;;1.75;0.20;;;2.90;99.90;;;;;;5028741;28;20453;-62
2021/01/25 10:28:22;;;;;;;3.90;2.30;;;2.80;99.90;;;;;;5031827;28;20170;-61
2021/01/25 10:30:48;;;;;;;1.73;0.20;;;2.90;99.90;;;;;;5029814;28;20189;-61
2021/01/25 10:33:14;;;;;;;1.77;0.20;;;2.90;99.90;;;;;;5030449;28;20190;-62
2021/01/25 10:35:41;;;;;;;1.70;0.20;;;3.00;99.90;;;;;;5033319;28;20171;-63
2021/01/25 10:38:07;;;;;;;1.70;0.20;;;3.10;99.90;;;;;;5030449;28;20197;-61
2021/01/25 10:40:33;;;;;;;1.80;0.20;;;3.10;99.90;;;;;;5029560;28;20174;-61
2021/01/25 10:42:59;;;;;;;2.10;0.70;;;3.20;99.90;;;;;;5024652;28;20182;-61
2021/01/25 10:45:25;;;;;;;3.40;1.33;;;3.00;99.90;;;;;;5038195;28;20411;-62
2021/01/25 10:47:50;;;;;;;2.85;0.77;;;2.90;99.90;;;;;;5020288;28;20445;-63
2021/01/25 10:50:17;;;;;;;11.53;5.77;;;2.90;99.90;;;;;;5042303;28;20192;-62
2021/01/25 10:52:43;;;;;;;1.83;0.43;;;2.90;99.90;;;;;;5036679;28;20588;-61
2021/01/25 10:55:10;;;;;;;4.13;2.58;;;2.90;99.90;;;;;;5041008;28;20272;-63
2021/01/25 10:57:36;;;;;;;5.30;4.28;;;2.90;99.90;;;;;;5047065;28;20229;-61
2021/01/25 11:00:07;;;;;;;1.87;0.50;;;3.00;99.90;;;;;;5039583;28;20198;-62
2021/01/25 11:02:33;;;;;;;1.70;0.20;;;2.90;99.90;;;;;;5023995;28;20211;-61
2021/01/25 11:04:58;;;;;;;9.70;5.53;;;2.90;99.90;;;;;;5031973;28;20252;-61
2021/01/25 11:07:24;;;;;;;3.80;2.50;;;2.90;99.90;;;;;;5029086;28;20212;-61
2021/01/25 11:09:50;;;;;;;3.10;1.03;;;2.80;99.90;;;;;;5026469;28;20190;-61
2021/01/25 11:12:16;;;;;;;2.67;1.55;;;2.80;99.90;;;;;;5030570;28;20189;-61
2021/01/25 11:14:42;;;;;;;3.97;2.45;;;2.80;99.90;;;;;;5029647;28;20309;-61
2021/01/25 11:17:08;;;;;;;9.40;6.80;;;2.70;99.90;;;;;;5030830;28;20347;-62
2021/01/25 11:19:34;;;;;;;5.20;3.17;;;2.80;99.90;;;;;;5027467;28;20186;-61
2021/01/25 11:21:59;;;;;;;2.47;1.50;;;2.70;99.90;;;;;;5037178;28;20513;-61
2021/01/25 11:24:25;;;;;;;1.80;0.30;;;2.70;99.90;;;;;;5030639;28;20922;-61
2021/01/25 11:26:53;;;;;;;1.73;0.20;;;2.70;99.90;;;;;;5028164;28;20221;-61
2021/01/25 11:29:19;;;;;;;1.83;0.35;;;2.80;99.90;;;;;;5028965;28;20185;-62
2021/01/25 11:31:45;;;;;;;5.85;3.88;;;2.80;99.90;;;;;;5033904;28;20186;-61
2021/01/25 11:34:11;;;;;;;2.28;0.63;;;2.80;99.90;;;;;;5026868;28;20189;-61
2021/01/25 11:36:36;;;;;;;4.13;2.13;;;2.90;99.90;;;;;;5029122;28;20260;-61
2021/01/25 11:39:03;;;;;;;1.73;0.20;;;2.90;99.90;;;;;;5029815;28;20261;-61
2021/01/25 11:41:29;;;;;;;3.25;1.58;;;2.80;99.90;;;;;;5029531;28;20198;-62
2021/01/25 11:43:54;;;;;;;5.70;2.37;;;2.80;99.90;;;;;;5032000;28;20185;-61
2021/01/25 11:46:20;;;;;;;2.90;1.30;;;2.70;99.90;;;;;;5027521;28;20232;-61
2021/01/25 11:48:46;;;;;;;1.70;0.20;;;2.70;99.90;;;;;;5027744;28;20191;-61
2021/01/25 11:51:12;;;;;;;2.13;0.60;;;2.70;99.90;;;;;;5042741;28;20445;-62
2021/01/25 11:53:37;;;;;;;7.00;4.00;;;2.80;99.90;;;;;;5032025;28;20732;-62
2021/01/25 11:56:04;;;;;;;1.80;0.33;;;2.80;99.90;;;;;;5030428;28;20202;-62
2021/01/25 11:58:30;;;;;;;10.02;5.20;;;2.80;99.90;;;;;;5032193;28;20239;-62
2021/01/25 12:00:56;;;;;;;5.27;2.63;;;2.70;99.90;;;;;;5030781;28;20284;-63
2021/01/25 12:03:21;;;;;;;2.97;2.50;;;2.80;99.90;;;;;;5033237;28;20182;-62
2021/01/25 12:05:47;;;;;;;2.93;1.47;;;2.80;99.90;;;;;;5031664;28;20731;-62
2021/01/25 12:08:13;;;;;;;8.70;3.50;;;2.90;99.90;;;;;;5028049;28;20182;-62
2021/01/25 12:10:39;;;;;;;9.70;4.63;;;2.90;99.90;;;;;;5033346;28;20178;-62
2021/01/25 12:13:05;;;;;;;3.72;1.08;;;2.90;99.90;;;;;;5033537;28;20471;-62
2021/01/25 12:15:31;;;;;;;1.70;0.20;;;2.80;99.90;;;;;;5026921;28;20269;-62
2021/01/25 12:17:56;;;;;;;2.93;1.50;;;2.90;99.90;;;;;;5029608;28;20233;-61
2021/01/25 12:20:22;;;;;;;2.00;0.57;;;2.90;99.90;;;;;;5028921;28;20178;-61
2021/01/25 12:22:48;;;;;;;4.23;3.00;;;2.80;99.90;;;;;;5036427;28;20212;-62
2021/01/25 12:25:14;;;;;;;4.13;1.90;;;2.80;99.90;;;;;;5038012;28;21157;-61
2021/01/25 12:27:40;;;;;;;5.03;2.20;;;2.90;99.90;;;;;;5031175;28;20696;-62
2021/01/25 12:30:06;;;;;;;1.70;0.30;;;3.00;99.90;;;;;;5030428;28;20213;-61
2021/01/25 12:32:33;;;;;;;3.22;1.77;;;3.00;99.90;;;;;;5035170;28;20263;-62
2021/01/25 12:34:59;;;;;;;3.45;1.42;;;3.00;99.90;;;;;;5032473;28;20181;-62
2021/01/25 12:37:25;;;;;;;2.40;0.87;;;3.00;99.90;;;;;;5029911;28;20205;-62
2021/01/25 12:39:51;;;;;;;2.23;0.80;;;3.10;99.90;;;;;;5034109;28;20451;-61
2021/01/25 12:42:16;;;;;;;2.67;1.23;;;3.10;99.90;;;;;;5030261;28;20734;-62
2021/01/25 12:44:42;;;;;;;1.73;0.20;;;3.10;99.90;;;;;;5038362;28;20209;-62
2021/01/25 12:47:08;;;;;;;4.20;2.20;;;3.20;99.90;;;;;;5033748;28;20828;-62
2021/01/25 12:49:34;;;;;;;8.07;6.83;;;3.20;99.90;;;;;;5032013;28;20404;-61
2021/01/25 12:52:00;;;;;;;1.70;0.20;;;3.10;99.90;;;;;;5035588;28;20186;-63
2021/01/25 12:54:25;;;;;;;3.00;1.67;;;3.20;99.90;;;;;;5031330;28;20209;-62
2021/01/25 12:56:51;;;;;;;2.33;0.70;;;3.20;99.90;;;;;;5043417;28;20567;-62